sensor_id;sensor_type;location;lat;lon;timestamp;pressure;altitude;pressure_sealevel;temperature;humidity
7966;BME280;4028;43.272;26.932;2023-08-07T00:00:12;98186.84;;;22.09;100.00
7966;BME280;4028;43.272;26.932;2023-08-07T00:02:38;98193.94;;;21.98;100.00
7966;BME280;4028;43.272;26.932;2023-08-07T00:05:05;98193.38;;;21.96;100.00
7966;BME280;4028;43.272;26.932;2023-08-07T00:07:31;98190.78;;;22.01;100.00
7966;BME280;4028;43.272;26.932;2023-08-07T00:09:56;98197.25;;;21.88;100.00
7966;BME280;4028;43.272;26.932;2023-08-07T00:12:22;98184.19;;;21.68;100.00
7966;BME280;4028;43.272;26.932;2023-08-07T00:14:50;98194.09;;;21.79;100.00
7966;BME280;4028;43.272;26.932;2023-08-07T00:17:15;98194.69;;;21.82;100.00
7966;BME280;4028;43.272;26.932;2023-08-07T00:19:41;98195.88;;;21.86;100.00
7966;BME280;4028;43.272;26.932;2023-08-07T00:22:06;98192.38;;;21.73;100.00
7966;BME280;4028;43.272;26.932;2023-08-07T00:24:32;98194.06;;;21.39;100.00
7966;BME280;4028;43.272;26.932;2023-08-07T00:26:57;98202.16;;;21.39;100.00
7966;BME280;4028;43.272;26.932;2023-08-07T00:29:23;98205.44;;;21.29;100.00
7966;BME280;4028;43.272;26.932;2023-08-07T00:31:48;98208.84;;;21.37;100.00
7966;BME280;4028;43.272;26.932;2023-08-07T00:34:14;98172.69;;;21.21;100.00
7966;BME280;4028;43.272;26.932;2023-08-07T00:36:40;98204.03;;;21.39;100.00
7966;BME280;4028;43.272;26.932;2023-08-07T00:39:05;98215.72;;;21.33;100.00
7966;BME280;4028;43.272;26.932;2023-08-07T00:41:33;98199.94;;;21.24;100.00
7966;BME280;4028;43.272;26.932;2023-08-07T00:43:58;98196.91;;;21.33;100.00
7966;BME280;4028;43.272;26.932;2023-08-07T00:46:24;98190.94;;;21.31;100.00
7966;BME280;4028;43.272;26.932;2023-08-07T00:48:51;98181.00;;;21.19;100.00
7966;BME280;4028;43.272;26.932;2023-08-07T00:51:17;98165.66;;;21.08;100.00
7966;BME280;4028;43.272;26.932;2023-08-07T00:53:43;98196.41;;;21.24;100.00
7966;BME280;4028;43.272;26.932;2023-08-07T00:56:09;98202.63;;;21.13;100.00
7966;BME280;4028;43.272;26.932;2023-08-07T00:58:34;98194.09;;;21.16;100.00
7966;BME280;4028;43.272;26.932;2023-08-07T01:01:00;98214.06;;;21.08;100.00
7966;BME280;4028;43.272;26.932;2023-08-07T01:03:25;98151.31;;;20.79;100.00
7966;BME280;4028;43.272;26.932;2023-08-07T01:05:51;98226.63;;;21.14;100.00
7966;BME280;4028;43.272;26.932;2023-08-07T01:08:17;98215.25;;;21.12;100.00
7966;BME280;4028;43.272;26.932;2023-08-07T01:13:37;98242.47;;;20.81;100.00
7966;BME280;4028;43.272;26.932;2023-08-07T01:16:13;98236.53;;;20.79;100.00
7966;BME280;4028;43.272;26.932;2023-08-07T01:18:42;98249.03;;;20.85;100.00
7966;BME280;4028;43.272;26.932;2023-08-07T01:21:19;98233.22;;;20.76;100.00
7966;BME280;4028;43.272;26.932;2023-08-07T01:23:48;98235.78;;;20.71;100.00
7966;BME280;4028;43.272;26.932;2023-08-07T01:26:15;98212.72;;;20.52;100.00
7966;BME280;4028;43.272;26.932;2023-08-07T01:28:47;98248.28;;;20.77;100.00
7966;BME280;4028;43.272;26.932;2023-08-07T01:31:19;98249.22;;;20.71;100.00
7966;BME280;4028;43.272;26.932;2023-08-07T01:33:57;98254.97;;;20.63;100.00
7966;BME280;4028;43.272;26.932;2023-08-07T01:36:27;98245.44;;;20.49;100.00
7966;BME280;4028;43.272;26.932;2023-08-07T01:38:58;98258.19;;;20.54;100.00
7966;BME280;4028;43.272;26.932;2023-08-07T01:41:25;98263.47;;;20.60;100.00
7966;BME280;4028;43.272;26.932;2023-08-07T01:43:51;98273.28;;;20.66;100.00
7966;BME280;4028;43.272;26.932;2023-08-07T01:46:18;98279.59;;;20.60;100.00
7966;BME280;4028;43.272;26.932;2023-08-07T01:48:43;98277.13;;;20.59;100.00
7966;BME280;4028;43.272;26.932;2023-08-07T01:51:09;98272.81;;;20.58;100.00
7966;BME280;4028;43.272;26.932;2023-08-07T01:53:34;98271.06;;;20.63;100.00
7966;BME280;4028;43.272;26.932;2023-08-07T01:56:00;98270.25;;;20.63;100.00
7966;BME280;4028;43.272;26.932;2023-08-07T01:58:25;98259.38;;;20.58;100.00
7966;BME280;4028;43.272;26.932;2023-08-07T02:00:51;98257.47;;;20.46;100.00
7966;BME280;4028;43.272;26.932;2023-08-07T02:03:17;98270.72;;;20.41;100.00
7966;BME280;4028;43.272;26.932;2023-08-07T02:05:47;98259.81;;;20.24;100.00
7966;BME280;4028;43.272;26.932;2023-08-07T02:08:14;98269.78;;;20.36;100.00
7966;BME280;4028;43.272;26.932;2023-08-07T02:10:39;98278.44;;;20.38;100.00
7966;BME280;4028;43.272;26.932;2023-08-07T02:13:05;98268.72;;;20.37;100.00
7966;BME280;4028;43.272;26.932;2023-08-07T02:15:30;98278.97;;;20.28;100.00
7966;BME280;4028;43.272;26.932;2023-08-07T02:17:56;98271.97;;;20.27;100.00
7966;BME280;4028;43.272;26.932;2023-08-07T02:20:21;98268.00;;;20.30;100.00
7966;BME280;4028;43.272;26.932;2023-08-07T02:22:46;98280.03;;;20.27;100.00
7966;BME280;4028;43.272;26.932;2023-08-07T02:25:12;98279.28;;;20.20;100.00
7966;BME280;4028;43.272;26.932;2023-08-07T02:27:38;98281.72;;;20.21;100.00
7966;BME280;4028;43.272;26.932;2023-08-07T02:30:04;98270.66;;;20.18;100.00
7966;BME280;4028;43.272;26.932;2023-08-07T02:32:30;98296.16;;;20.27;100.00
7966;BME280;4028;43.272;26.932;2023-08-07T02:34:56;98288.09;;;20.27;100.00
7966;BME280;4028;43.272;26.932;2023-08-07T02:37:21;98291.47;;;20.22;100.00
7966;BME280;4028;43.272;26.932;2023-08-07T02:39:47;98294.16;;;20.22;100.00
7966;BME280;4028;43.272;26.932;2023-08-07T02:42:12;98301.59;;;20.20;100.00
7966;BME280;4028;43.272;26.932;2023-08-07T02:44:38;98303.63;;;20.07;100.00
7966;BME280;4028;43.272;26.932;2023-08-07T02:47:03;98314.00;;;20.03;100.00
7966;BME280;4028;43.272;26.932;2023-08-07T02:49:29;98310.78;;;20.13;100.00
7966;BME280;4028;43.272;26.932;2023-08-07T02:51:54;98305.56;;;20.18;100.00
7966;BME280;4028;43.272;26.932;2023-08-07T02:54:20;98313.97;;;20.21;100.00
7966;BME280;4028;43.272;26.932;2023-08-07T02:56:45;98312.81;;;20.17;100.00
7966;BME280;4028;43.272;26.932;2023-08-07T02:59:11;98309.06;;;20.00;100.00
7966;BME280;4028;43.272;26.932;2023-08-07T03:01:36;98327.44;;;20.03;100.00
7966;BME280;4028;43.272;26.932;2023-08-07T03:04:02;98325.78;;;20.02;100.00
7966;BME280;4028;43.272;26.932;2023-08-07T03:06:27;98323.31;;;20.00;100.00
7966;BME280;4028;43.272;26.932;2023-08-07T03:08:53;98316.81;;;19.90;100.00
7966;BME280;4028;43.272;26.932;2023-08-07T03:11:18;98335.34;;;19.98;100.00
7966;BME280;4028;43.272;26.932;2023-08-07T03:13:44;98335.69;;;19.83;100.00
7966;BME280;4028;43.272;26.932;2023-08-07T03:16:09;98355.00;;;19.73;100.00
7966;BME280;4028;43.272;26.932;2023-08-07T03:18:35;98369.78;;;19.83;100.00
7966;BME280;4028;43.272;26.932;2023-08-07T03:21:00;98364.78;;;19.86;100.00
7966;BME280;4028;43.272;26.932;2023-08-07T03:23:28;98366.19;;;19.89;100.00
7966;BME280;4028;43.272;26.932;2023-08-07T03:26:08;98372.16;;;19.91;100.00
7966;BME280;4028;43.272;26.932;2023-08-07T03:28:34;98371.19;;;19.85;100.00
7966;BME280;4028;43.272;26.932;2023-08-07T03:31:00;98373.94;;;19.79;100.00
7966;BME280;4028;43.272;26.932;2023-08-07T03:33:26;98363.47;;;19.70;100.00
7966;BME280;4028;43.272;26.932;2023-08-07T03:35:52;98369.47;;;19.72;100.00
7966;BME280;4028;43.272;26.932;2023-08-07T03:38:17;98374.75;;;19.79;100.00
7966;BME280;4028;43.272;26.932;2023-08-07T03:40:43;98378.50;;;19.78;100.00
7966;BME280;4028;43.272;26.932;2023-08-07T03:43:09;98385.53;;;19.97;100.00
7966;BME280;4028;43.272;26.932;2023-08-07T03:45:34;98369.19;;;19.99;100.00
7966;BME280;4028;43.272;26.932;2023-08-07T03:48:00;98384.63;;;20.04;100.00
7966;BME280;4028;43.272;26.932;2023-08-07T03:50:25;98366.22;;;20.07;100.00
7966;BME280;4028;43.272;26.932;2023-08-07T03:52:51;98369.09;;;20.06;100.00
7966;BME280;4028;43.272;26.932;2023-08-07T03:55:16;98373.22;;;20.08;100.00
7966;BME280;4028;43.272;26.932;2023-08-07T03:57:41;98366.13;;;20.14;100.00
7966;BME280;4028;43.272;26.932;2023-08-07T04:00:07;98372.47;;;20.38;100.00
7966;BME280;4028;43.272;26.932;2023-08-07T04:02:33;98379.56;;;20.81;100.00
7966;BME280;4028;43.272;26.932;2023-08-07T04:04:58;98376.25;;;21.74;100.00
7966;BME280;4028;43.272;26.932;2023-08-07T04:07:24;98375.44;;;21.85;100.00
7966;BME280;4028;43.272;26.932;2023-08-07T04:09:49;98381.41;;;22.11;100.00
7966;BME280;4028;43.272;26.932;2023-08-07T04:12:15;98380.13;;;22.13;100.00
7966;BME280;4028;43.272;26.932;2023-08-07T04:14:40;98379.00;;;22.49;100.00
7966;BME280;4028;43.272;26.932;2023-08-07T04:17:05;98373.22;;;23.31;100.00
7966;BME280;4028;43.272;26.932;2023-08-07T04:19:31;98384.97;;;24.75;89.28
7966;BME280;4028;43.272;26.932;2023-08-07T04:21:56;98400.88;;;25.80;75.94
7966;BME280;4028;43.272;26.932;2023-08-07T04:24:22;98401.22;;;27.50;63.60
7966;BME280;4028;43.272;26.932;2023-08-07T04:26:47;98398.75;;;27.48;59.78
7966;BME280;4028;43.272;26.932;2023-08-07T04:29:13;98410.44;;;27.43;59.84
7966;BME280;4028;43.272;26.932;2023-08-07T04:31:38;98403.38;;;27.78;57.40
7966;BME280;4028;43.272;26.932;2023-08-07T04:34:04;98409.63;;;27.94;56.75
7966;BME280;4028;43.272;26.932;2023-08-07T04:36:30;98406.91;;;27.38;58.04
7966;BME280;4028;43.272;26.932;2023-08-07T04:38:55;98410.34;;;26.87;59.96
7966;BME280;4028;43.272;26.932;2023-08-07T04:41:21;98421.00;;;27.09;58.80
7966;BME280;4028;43.272;26.932;2023-08-07T04:43:46;98420.69;;;26.33;63.23
7966;BME280;4028;43.272;26.932;2023-08-07T04:46:13;98412.28;;;25.55;66.59
7966;BME280;4028;43.272;26.932;2023-08-07T04:48:39;98424.88;;;25.12;72.51
7966;BME280;4028;43.272;26.932;2023-08-07T04:51:05;98421.50;;;25.00;73.08
7966;BME280;4028;43.272;26.932;2023-08-07T04:53:30;98441.78;;;24.53;81.11
7966;BME280;4028;43.272;26.932;2023-08-07T04:55:56;98438.38;;;24.02;85.36
7966;BME280;4028;43.272;26.932;2023-08-07T04:58:21;98446.16;;;23.65;89.71
7966;BME280;4028;43.272;26.932;2023-08-07T05:00:46;98443.34;;;22.86;99.92
7966;BME280;4028;43.272;26.932;2023-08-07T05:03:12;98461.25;;;22.05;100.00
7966;BME280;4028;43.272;26.932;2023-08-07T05:05:38;98451.44;;;21.87;100.00
7966;BME280;4028;43.272;26.932;2023-08-07T05:08:03;98464.91;;;21.99;100.00
7966;BME280;4028;43.272;26.932;2023-08-07T05:10:29;98473.66;;;21.71;100.00
7966;BME280;4028;43.272;26.932;2023-08-07T05:12:54;98465.78;;;21.46;100.00
7966;BME280;4028;43.272;26.932;2023-08-07T05:15:23;98474.06;;;21.44;100.00
7966;BME280;4028;43.272;26.932;2023-08-07T05:17:50;98465.09;;;21.20;100.00
7966;BME280;4028;43.272;26.932;2023-08-07T05:20:15;98467.91;;;21.25;100.00
7966;BME280;4028;43.272;26.932;2023-08-07T05:22:41;98469.94;;;21.30;100.00
7966;BME280;4028;43.272;26.932;2023-08-07T05:25:07;98473.34;;;21.37;100.00
7966;BME280;4028;43.272;26.932;2023-08-07T05:27:34;98462.28;;;21.27;100.00
7966;BME280;4028;43.272;26.932;2023-08-07T05:30:00;98448.34;;;21.18;100.00
7966;BME280;4028;43.272;26.932;2023-08-07T05:32:25;98447.78;;;21.28;100.00
7966;BME280;4028;43.272;26.932;2023-08-07T05:34:51;98445.44;;;21.20;100.00
7966;BME280;4028;43.272;26.932;2023-08-07T05:37:16;98448.34;;;21.18;100.00
7966;BME280;4028;43.272;26.932;2023-08-07T05:39:42;98453.84;;;21.23;100.00
7966;BME280;4028;43.272;26.932;2023-08-07T05:42:07;98449.19;;;21.72;100.00
7966;BME280;4028;43.272;26.932;2023-08-07T05:44:35;98457.31;;;22.19;100.00
7966;BME280;4028;43.272;26.932;2023-08-07T05:47:00;98456.00;;;22.10;100.00
7966;BME280;4028;43.272;26.932;2023-08-07T05:49:26;98443.44;;;22.51;100.00
7966;BME280;4028;43.272;26.932;2023-08-07T05:51:51;98442.66;;;23.19;97.63
7966;BME280;4028;43.272;26.932;2023-08-07T05:54:17;98440.25;;;23.68;89.93
7966;BME280;4028;43.272;26.932;2023-08-07T05:56:42;98442.22;;;23.90;84.76
7966;BME280;4028;43.272;26.932;2023-08-07T05:59:08;98442.63;;;23.98;82.27
7966;BME280;4028;43.272;26.932;2023-08-07T06:01:33;98443.53;;;23.87;78.89
7966;BME280;4028;43.272;26.932;2023-08-07T06:03:59;98429.97;;;24.21;80.14
7966;BME280;4028;43.272;26.932;2023-08-07T06:06:25;98430.09;;;24.48;72.49
7966;BME280;4028;43.272;26.932;2023-08-07T06:08:53;98451.09;;;24.62;70.21
7966;BME280;4028;43.272;26.932;2023-08-07T06:11:18;98437.81;;;24.61;67.79
7966;BME280;4028;43.272;26.932;2023-08-07T06:13:44;98436.25;;;24.43;68.70
7966;BME280;4028;43.272;26.932;2023-08-07T06:16:09;98438.06;;;24.59;65.57
7966;BME280;4028;43.272;26.932;2023-08-07T06:18:36;98416.56;;;24.48;65.38
7966;BME280;4028;43.272;26.932;2023-08-07T06:21:02;98420.38;;;24.96;64.81
7966;BME280;4028;43.272;26.932;2023-08-07T06:23:29;98423.19;;;25.33;62.72
7966;BME280;4028;43.272;26.932;2023-08-07T06:25:54;98429.84;;;25.20;60.45
7966;BME280;4028;43.272;26.932;2023-08-07T06:28:20;98424.78;;;25.29;60.88
7966;BME280;4028;43.272;26.932;2023-08-07T06:30:46;98429.22;;;25.13;59.14
7966;BME280;4028;43.272;26.932;2023-08-07T06:33:11;98440.31;;;25.11;60.60
7966;BME280;4028;43.272;26.932;2023-08-07T06:35:38;98456.44;;;25.28;57.43
7966;BME280;4028;43.272;26.932;2023-08-07T06:38:04;98440.75;;;25.57;56.16
7966;BME280;4028;43.272;26.932;2023-08-07T06:40:30;98465.25;;;26.42;54.81
7966;BME280;4028;43.272;26.932;2023-08-07T06:42:55;98446.63;;;26.66;51.67
7966;BME280;4028;43.272;26.932;2023-08-07T06:45:21;98455.38;;;26.78;53.00
7966;BME280;4028;43.272;26.932;2023-08-07T06:47:46;98448.19;;;27.35;51.10
7966;BME280;4028;43.272;26.932;2023-08-07T06:50:13;98453.91;;;27.69;50.01
7966;BME280;4028;43.272;26.932;2023-08-07T06:52:39;98449.03;;;27.40;48.99
7966;BME280;4028;43.272;26.932;2023-08-07T06:55:05;98484.31;;;27.35;48.22
7966;BME280;4028;43.272;26.932;2023-08-07T06:57:31;98467.50;;;27.28;47.45
7966;BME280;4028;43.272;26.932;2023-08-07T06:59:56;98463.56;;;26.99;49.17
7966;BME280;4028;43.272;26.932;2023-08-07T07:02:22;98460.97;;;27.34;48.75
7966;BME280;4028;43.272;26.932;2023-08-07T07:04:47;98475.91;;;27.42;48.30
7966;BME280;4028;43.272;26.932;2023-08-07T07:07:12;98474.50;;;27.09;47.91
7966;BME280;4028;43.272;26.932;2023-08-07T07:09:38;98480.00;;;27.44;48.66
7966;BME280;4028;43.272;26.932;2023-08-07T07:12:04;98473.50;;;27.66;49.01
7966;BME280;4028;43.272;26.932;2023-08-07T07:14:29;98463.41;;;28.28;46.12
7966;BME280;4028;43.272;26.932;2023-08-07T07:16:55;98470.31;;;28.85;46.34
7966;BME280;4028;43.272;26.932;2023-08-07T07:19:20;98476.03;;;28.88;44.75
7966;BME280;4028;43.272;26.932;2023-08-07T07:21:46;98476.56;;;28.95;44.50
7966;BME280;4028;43.272;26.932;2023-08-07T07:24:11;98472.50;;;28.88;44.13
7966;BME280;4028;43.272;26.932;2023-08-07T07:26:36;98471.13;;;28.85;44.34
7966;BME280;4028;43.272;26.932;2023-08-07T07:29:02;98473.47;;;28.37;44.69
7966;BME280;4028;43.272;26.932;2023-08-07T07:31:27;98469.97;;;28.06;44.81
7966;BME280;4028;43.272;26.932;2023-08-07T07:33:53;98471.63;;;27.77;45.42
7966;BME280;4028;43.272;26.932;2023-08-07T07:36:18;98466.91;;;28.48;45.58
7966;BME280;4028;43.272;26.932;2023-08-07T07:38:45;98487.34;;;28.41;44.37
7966;BME280;4028;43.272;26.932;2023-08-07T07:41:13;98450.34;;;28.40;43.49
7966;BME280;4028;43.272;26.932;2023-08-07T07:43:38;98438.00;;;28.68;43.73
7966;BME280;4028;43.272;26.932;2023-08-07T07:46:04;98422.94;;;28.86;43.59
7966;BME280;4028;43.272;26.932;2023-08-07T07:48:29;98432.13;;;29.05;43.96
7966;BME280;4028;43.272;26.932;2023-08-07T07:50:59;98436.66;;;28.60;43.01
7966;BME280;4028;43.272;26.932;2023-08-07T07:53:25;98436.97;;;28.54;43.21
7966;BME280;4028;43.272;26.932;2023-08-07T07:55:51;98424.22;;;28.29;43.67
7966;BME280;4028;43.272;26.932;2023-08-07T07:58:16;98439.75;;;28.23;43.45
7966;BME280;4028;43.272;26.932;2023-08-07T08:00:42;98428.88;;;28.18;43.69
7966;BME280;4028;43.272;26.932;2023-08-07T08:03:07;98429.56;;;28.64;43.17
7966;BME280;4028;43.272;26.932;2023-08-07T08:05:34;98423.41;;;28.28;42.43
7966;BME280;4028;43.272;26.932;2023-08-07T08:08:00;98438.41;;;28.15;44.14
7966;BME280;4028;43.272;26.932;2023-08-07T08:10:26;98432.94;;;28.41;43.40
7966;BME280;4028;43.272;26.932;2023-08-07T08:12:54;98436.47;;;28.31;43.92
7966;BME280;4028;43.272;26.932;2023-08-07T08:15:20;98446.81;;;28.39;43.91
7966;BME280;4028;43.272;26.932;2023-08-07T08:17:46;98456.34;;;28.37;43.81
7966;BME280;4028;43.272;26.932;2023-08-07T08:20:12;98449.31;;;28.05;44.29
7966;BME280;4028;43.272;26.932;2023-08-07T08:22:41;98481.25;;;28.74;43.76
7966;BME280;4028;43.272;26.932;2023-08-07T08:25:06;98451.69;;;29.07;41.94
7966;BME280;4028;43.272;26.932;2023-08-07T08:27:32;98454.88;;;28.65;42.14
7966;BME280;4028;43.272;26.932;2023-08-07T08:29:58;98456.69;;;28.85;42.32
7966;BME280;4028;43.272;26.932;2023-08-07T08:32:23;98459.72;;;28.78;41.82
7966;BME280;4028;43.272;26.932;2023-08-07T08:34:48;98455.88;;;28.84;40.63
7966;BME280;4028;43.272;26.932;2023-08-07T08:37:15;98454.63;;;28.61;41.37
7966;BME280;4028;43.272;26.932;2023-08-07T08:39:41;98465.75;;;28.65;40.94
7966;BME280;4028;43.272;26.932;2023-08-07T08:42:09;98460.28;;;29.30;40.78
7966;BME280;4028;43.272;26.932;2023-08-07T08:44:37;98471.50;;;29.67;39.76
7966;BME280;4028;43.272;26.932;2023-08-07T08:47:04;98457.94;;;28.53;39.97
7966;BME280;4028;43.272;26.932;2023-08-07T08:49:35;98473.38;;;28.73;40.19
7966;BME280;4028;43.272;26.932;2023-08-07T08:52:03;98469.91;;;29.17;39.81
7966;BME280;4028;43.272;26.932;2023-08-07T08:54:30;98472.69;;;29.07;39.94
7966;BME280;4028;43.272;26.932;2023-08-07T08:56:56;98478.00;;;29.27;39.07
7966;BME280;4028;43.272;26.932;2023-08-07T08:59:24;98474.06;;;29.54;38.67
7966;BME280;4028;43.272;26.932;2023-08-07T09:01:51;98472.13;;;29.10;39.48
7966;BME280;4028;43.272;26.932;2023-08-07T09:04:18;98482.97;;;29.64;38.29
7966;BME280;4028;43.272;26.932;2023-08-07T09:06:44;98496.69;;;29.49;38.77
7966;BME280;4028;43.272;26.932;2023-08-07T09:09:12;98490.31;;;29.19;39.11
7966;BME280;4028;43.272;26.932;2023-08-07T09:11:40;98486.59;;;29.55;38.71
7966;BME280;4028;43.272;26.932;2023-08-07T09:14:07;98495.34;;;29.86;38.93
7966;BME280;4028;43.272;26.932;2023-08-07T09:16:34;98485.88;;;30.12;38.17
7966;BME280;4028;43.272;26.932;2023-08-07T09:19:01;98487.38;;;29.94;37.15
7966;BME280;4028;43.272;26.932;2023-08-07T09:21:27;98496.22;;;29.32;38.40
7966;BME280;4028;43.272;26.932;2023-08-07T09:23:54;98500.91;;;29.26;38.19
7966;BME280;4028;43.272;26.932;2023-08-07T09:26:22;98501.88;;;29.45;39.16
7966;BME280;4028;43.272;26.932;2023-08-07T09:28:52;98504.75;;;29.20;37.98
7966;BME280;4028;43.272;26.932;2023-08-07T09:31:19;98515.84;;;29.34;37.60
7966;BME280;4028;43.272;26.932;2023-08-07T09:33:47;98510.97;;;29.75;37.50
7966;BME280;4028;43.272;26.932;2023-08-07T09:36:13;98507.94;;;29.76;36.73
7966;BME280;4028;43.272;26.932;2023-08-07T09:38:39;98520.25;;;29.74;37.42
7966;BME280;4028;43.272;26.932;2023-08-07T09:41:04;98523.13;;;29.54;38.48
7966;BME280;4028;43.272;26.932;2023-08-07T09:43:34;98520.06;;;29.60;37.50
7966;BME280;4028;43.272;26.932;2023-08-07T09:46:04;98526.03;;;30.01;36.08
7966;BME280;4028;43.272;26.932;2023-08-07T09:48:30;98531.38;;;30.46;36.37
7966;BME280;4028;43.272;26.932;2023-08-07T09:51:00;98524.97;;;30.32;35.85
7966;BME280;4028;43.272;26.932;2023-08-07T09:53:26;98508.66;;;30.50;36.35
7966;BME280;4028;43.272;26.932;2023-08-07T09:55:55;98523.44;;;30.20;36.14
7966;BME280;4028;43.272;26.932;2023-08-07T09:58:23;98531.50;;;30.36;37.13
7966;BME280;4028;43.272;26.932;2023-08-07T10:00:49;98533.88;;;30.08;36.90
7966;BME280;4028;43.272;26.932;2023-08-07T10:03:15;98531.28;;;30.27;36.75
7966;BME280;4028;43.272;26.932;2023-08-07T10:05:42;98535.34;;;30.29;36.30
7966;BME280;4028;43.272;26.932;2023-08-07T10:08:09;98539.06;;;30.39;36.78
7966;BME280;4028;43.272;26.932;2023-08-07T10:10:37;98544.00;;;30.02;36.09
7966;BME280;4028;43.272;26.932;2023-08-07T10:13:02;98529.63;;;30.31;35.86
7966;BME280;4028;43.272;26.932;2023-08-07T10:15:29;98545.13;;;30.01;36.53
7966;BME280;4028;43.272;26.932;2023-08-07T10:17:56;98546.59;;;29.84;36.95
7966;BME280;4028;43.272;26.932;2023-08-07T10:20:22;98538.78;;;30.11;35.33
7966;BME280;4028;43.272;26.932;2023-08-07T10:22:50;98537.19;;;30.05;35.50
7966;BME280;4028;43.272;26.932;2023-08-07T10:25:20;98544.78;;;30.42;36.04
7966;BME280;4028;43.272;26.932;2023-08-07T10:27:47;98536.88;;;30.94;34.79
7966;BME280;4028;43.272;26.932;2023-08-07T10:30:16;98546.50;;;30.86;34.24
7966;BME280;4028;43.272;26.932;2023-08-07T10:32:44;98544.69;;;30.82;34.30
7966;BME280;4028;43.272;26.932;2023-08-07T10:35:23;98543.25;;;30.31;34.83
7966;BME280;4028;43.272;26.932;2023-08-07T10:37:50;98550.28;;;30.66;35.13
7966;BME280;4028;43.272;26.932;2023-08-07T10:40:17;98542.13;;;30.61;34.86
7966;BME280;4028;43.272;26.932;2023-08-07T10:45:20;98542.75;;;30.82;33.86
7966;BME280;4028;43.272;26.932;2023-08-07T10:48:13;98544.19;;;30.74;34.52
7966;BME280;4028;43.272;26.932;2023-08-07T10:50:55;98558.66;;;30.75;33.51
7966;BME280;4028;43.272;26.932;2023-08-07T10:53:42;98552.09;;;30.76;33.32
7966;BME280;4028;43.272;26.932;2023-08-07T10:56:11;98548.38;;;30.91;33.66
7966;BME280;4028;43.272;26.932;2023-08-07T10:58:40;98557.44;;;31.34;34.06
7966;BME280;4028;43.272;26.932;2023-08-07T11:01:39;98554.69;;;31.53;33.48
7966;BME280;4028;43.272;26.932;2023-08-07T11:04:07;98561.84;;;31.68;33.42
7966;BME280;4028;43.272;26.932;2023-08-07T11:06:34;98550.00;;;31.58;33.60
7966;BME280;4028;43.272;26.932;2023-08-07T11:09:01;98560.03;;;31.44;33.76
7966;BME280;4028;43.272;26.932;2023-08-07T11:11:38;98558.06;;;31.26;33.24
7966;BME280;4028;43.272;26.932;2023-08-07T11:14:08;98566.53;;;31.48;33.23
7966;BME280;4028;43.272;26.932;2023-08-07T11:16:34;98558.97;;;30.97;33.64
7966;BME280;4028;43.272;26.932;2023-08-07T11:19:00;98550.22;;;31.19;34.83
7966;BME280;4028;43.272;26.932;2023-08-07T11:21:26;98561.97;;;31.20;33.68
7966;BME280;4028;43.272;26.932;2023-08-07T11:23:51;98563.44;;;31.12;33.51
7966;BME280;4028;43.272;26.932;2023-08-07T11:26:17;98565.25;;;31.17;34.21
7966;BME280;4028;43.272;26.932;2023-08-07T11:28:47;98556.53;;;31.57;33.55
7966;BME280;4028;43.272;26.932;2023-08-07T11:31:13;98566.09;;;31.60;33.50
7966;BME280;4028;43.272;26.932;2023-08-07T11:33:39;98569.28;;;31.24;32.33
7966;BME280;4028;43.272;26.932;2023-08-07T11:36:10;98564.00;;;30.85;33.12
7966;BME280;4028;43.272;26.932;2023-08-07T11:38:41;98561.84;;;31.06;33.57
7966;BME280;4028;43.272;26.932;2023-08-07T11:41:14;98566.22;;;30.54;33.90
7966;BME280;4028;43.272;26.932;2023-08-07T11:43:40;98556.91;;;29.92;34.71
7966;BME280;4028;43.272;26.932;2023-08-07T11:46:08;98558.06;;;30.20;34.23
7966;BME280;4028;43.272;26.932;2023-08-07T11:48:37;98552.25;;;30.32;33.81
7966;BME280;4028;43.272;26.932;2023-08-07T11:51:04;98559.28;;;30.67;34.45
7966;BME280;4028;43.272;26.932;2023-08-07T11:53:32;98559.53;;;30.94;33.41
7966;BME280;4028;43.272;26.932;2023-08-07T11:55:59;98541.78;;;30.68;33.56
7966;BME280;4028;43.272;26.932;2023-08-07T11:58:36;98545.50;;;31.01;34.21
7966;BME280;4028;43.272;26.932;2023-08-07T12:01:12;98524.88;;;30.66;34.30
7966;BME280;4028;43.272;26.932;2023-08-07T12:03:42;98532.47;;;30.98;33.81
7966;BME280;4028;43.272;26.932;2023-08-07T12:06:09;98529.88;;;31.30;32.79
7966;BME280;4028;43.272;26.932;2023-08-07T12:08:36;98531.97;;;30.91;32.67
7966;BME280;4028;43.272;26.932;2023-08-07T12:11:07;98538.84;;;30.88;33.94
7966;BME280;4028;43.272;26.932;2023-08-07T12:13:37;98535.81;;;31.14;33.19
7966;BME280;4028;43.272;26.932;2023-08-07T12:16:03;98537.25;;;31.30;32.49
7966;BME280;4028;43.272;26.932;2023-08-07T12:18:30;98537.28;;;31.49;32.06
7966;BME280;4028;43.272;26.932;2023-08-07T12:21:00;98534.41;;;31.16;32.42
7966;BME280;4028;43.272;26.932;2023-08-07T12:23:26;98539.47;;;31.28;32.83
7966;BME280;4028;43.272;26.932;2023-08-07T12:25:52;98524.09;;;31.32;30.41
7966;BME280;4028;43.272;26.932;2023-08-07T12:28:18;98544.19;;;31.22;31.65
7966;BME280;4028;43.272;26.932;2023-08-07T12:30:47;98536.50;;;31.00;32.52
7966;BME280;4028;43.272;26.932;2023-08-07T12:33:13;98538.59;;;31.09;31.43
7966;BME280;4028;43.272;26.932;2023-08-07T12:35:39;98543.09;;;30.99;32.93
7966;BME280;4028;43.272;26.932;2023-08-07T12:38:05;98536.81;;;30.75;31.83
7966;BME280;4028;43.272;26.932;2023-08-07T12:40:30;98550.13;;;30.52;31.81
7966;BME280;4028;43.272;26.932;2023-08-07T12:42:57;98542.19;;;30.56;31.67
7966;BME280;4028;43.272;26.932;2023-08-07T12:45:23;98545.25;;;30.49;31.57
7966;BME280;4028;43.272;26.932;2023-08-07T12:47:49;98539.03;;;30.10;32.13
7966;BME280;4028;43.272;26.932;2023-08-07T12:50:14;98549.28;;;30.28;34.04
7966;BME280;4028;43.272;26.932;2023-08-07T12:52:40;98547.97;;;30.49;32.99
7966;BME280;4028;43.272;26.932;2023-08-07T12:55:06;98548.03;;;30.44;31.99
7966;BME280;4028;43.272;26.932;2023-08-07T12:57:32;98554.13;;;30.60;32.32
7966;BME280;4028;43.272;26.932;2023-08-07T12:59:57;98556.41;;;30.82;32.49
7966;BME280;4028;43.272;26.932;2023-08-07T13:02:23;98560.09;;;30.91;33.54
7966;BME280;4028;43.272;26.932;2023-08-07T13:04:48;98549.44;;;30.66;32.61
7966;BME280;4028;43.272;26.932;2023-08-07T13:07:14;98544.69;;;30.52;33.33
7966;BME280;4028;43.272;26.932;2023-08-07T13:09:39;98551.91;;;30.67;31.82